Data for 04/23/2006

Time Sea-Level Adjusted Pressure Absolute Pressure Temperature Relative Humidity Dew Point   
(mb) (inHg) (mb) (inHg) (C) (F) (%) (C) (F)
00:05 1020 30.12 849 25.07 4.1 39.3 81 1.2 34.1
00:10 1020 30.12 849 25.07 3.8 38.9 82 1 33.8
00:15 1020 30.12 849 25.07 3.7 38.6 82 0.9 33.6
00:20 1020 30.12 849 25.07 3.6 38.4 83 0.9 33.6
00:25 1020 30.12 849 25.07 3.5 38.2 83 0.9 33.6
00:30 1020 30.12 849 25.07 3.3 37.9 84 0.9 33.6
00:35 1020 30.12 849 25.07 3.1 37.5 85 0.8 33.5
00:40 1020 30.12 849 25.07 2.9 37.2 86 0.7 33.3
00:45 1020 30.12 849 25.07 2.8 37.1 86 0.8 33.4
00:50 1020 30.12 849 25.07 2.7 36.9 87 0.8 33.4
00:55 1020 30.12 849 25.07 2.5 36.5 88 0.7 33.3
01:00 1020 30.12 850 25.1 2.4 36.3 88 0.5 33
01:05 1020 30.12 850 25.1 2.3 36.1 87 0.4 32.7
01:10 1020 30.12 850 25.1 2.3 36.2 87 0.4 32.8
01:15 1021 30.15 850 25.1 2.4 36.2 88 0.6 33.1
01:20 1021 30.15 850 25.1 2.4 36.3 88 0.6 33.1
01:25 1021 30.15 850 25.1 2.2 35.9 89 0.5 32.9
01:30 1021 30.15 850 25.1 2.1 35.8 90 0.6 33
01:35 1021 30.15 850 25.1 2 35.7 90 0.6 33.1
01:40 1021 30.15 850 25.1 2 35.7 91 0.7 33.3
01:45 1021 30.15 850 25.1 1.9 35.4 93 0.9 33.6
01:50 1021 30.15 850 25.1 1.8 35.2 94 0.9 33.6
01:55 1021 30.15 850 25.1 1.7 35 94 0.8 33.4
02:00 1021 30.15 850 25.1 1.6 34.9 94 0.7 33.2
02:05 1021 30.15 850 25.1 1.6 34.9 94 0.7 33.3
02:10 1021 30.15 850 25.1 1.6 34.8 94 0.7 33.3
02:15 1021 30.15 850 25.1 1.6 34.8 94 0.8 33.4
02:20 1021 30.15 850 25.1 1.5 34.7 95 0.8 33.4
02:25 1021 30.15 850 25.1 1.5 34.8 95 0.7 33.3
02:30 1021 30.15 850 25.1 1.5 34.7 94 0.7 33.2
02:35 1021 30.15 850 25.1 1.5 34.6 95 0.7 33.2
02:40 1021 30.15 850 25.1 1.3 34.4 95 0.6 33.1
02:45 1021 30.15 850 25.1 1.3 34.4 95 0.6 33.1
02:50 1021 30.15 850 25.1 1.4 34.5 95 0.7 33.2
02:55 1021 30.15 850 25.1 1.4 34.5 96 0.8 33.4
03:00 1021 30.15 850 25.1 1.4 34.5 95 0.7 33.3
03:05 1021 30.15 850 25.1 1.3 34.4 95 0.6 33.1
03:10 1021 30.15 851 25.13 1.4 34.5 95 0.7 33.2
03:15 1021 30.15 851 25.13 1.3 34.3 95 0.6 33
03:20 1021 30.15 850 25.1 1.1 34 96 0.5 32.9
03:25 1021 30.15 850 25.1 1 33.7 96 0.4 32.8
03:30 1021 30.15 850 25.1 0.9 33.5 97 0.4 32.7
03:35 1021 30.15 850 25.1 0.8 33.4 97 0.4 32.7
03:40 1021 30.15 850 25.1 0.8 33.5 98 0.5 32.9
03:45 1021 30.15 850 25.1 0.9 33.6 97 0.5 32.9
03:50 1021 30.15 851 25.13 0.9 33.6 97 0.5 32.9
03:55 1021 30.15 851 25.13 0.7 33.3 98 0.3 32.6
04:00 1021 30.15 851 25.13 0.6 33.1 98 0.3 32.5
04:05 1021 30.15 851 25.13 0.6 33 98 0.3 32.5
04:10 1021 30.15 851 25.13 0.5 33 98 0.2 32.4
04:15 1021 30.15 851 25.13 0.6 33 98 0.3 32.5
04:20 1021 30.15 851 25.13 0.7 33.2 98 0.4 32.7
04:25 1021 30.15 851 25.13 0.8 33.4 97 0.3 32.6
04:30 1021 30.15 851 25.13 0.7 33.3 97 0.3 32.6
04:35 1021 30.15 851 25.13 0.6 33.1 97 0.2 32.4
04:40 1022 30.18 851 25.13 0.5 33 98 0.2 32.4
04:45 1022 30.18 851 25.13 0.5 32.9 98 0.2 32.4
04:50 1022 30.18 851 25.13 0.5 32.8 98 0.2 32.3
04:55 1022 30.18 851 25.13 0.3 32.5 99 0.1 32.2
05:00 1022 30.18 851 25.13 0.3 32.5 99 0.1 32.2
05:05 1022 30.18 851 25.13 0.3 32.6 99 0.2 32.3
05:10 1022 30.18 851 25.13 0.3 32.6 99 0.1 32.3
05:15 1022 30.18 851 25.13 0.3 32.6 98 0.1 32.2
05:20 1022 30.18 851 25.13 0.3 32.6 98 0.1 32.1
05:25 1022 30.18 851 25.13 0.3 32.5 98 0 32.1
05:30 1022 30.18 851 25.13 0.3 32.6 98 0.1 32.1
05:35 1022 30.18 851 25.13 0.3 32.5 98 0 32
05:40 1022 30.18 851 25.13 0.3 32.5 98 0.1 32.1
05:45 1022 30.18 851 25.13 0.3 32.6 98 0.1 32.2
05:50 1022 30.18 851 25.13 0.3 32.6 98 0.1 32.2
05:55 1022 30.18 851 25.13 0.3 32.6 99 0.1 32.2
06:00 1022 30.18 851 25.13 0.3 32.6 99 0.2 32.3
06:05 1022 30.18 851 25.13 0.3 32.5 99 0.1 32.2
06:10 1022 30.18 851 25.13 0.3 32.6 99 0.2 32.3
06:15 1022 30.18 851 25.13 0.2 32.4 99 0.1 32.1
06:20 1022 30.18 852 25.16 0.1 32.3 99 0 32.1
06:25 1023 30.21 852 25.16 0.1 32.2 99 -0 32
06:30 1023 30.21 852 25.16 0.1 32.2 99 0 32
06:35 1023 30.21 852 25.16 0.2 32.3 99 0.1 32.2
06:40 1023 30.21 852 25.16 0.2 32.4 99 0.1 32.2
06:45 1023 30.21 852 25.16 0.1 32.2 99 0 32
06:50 1023 30.21 852 25.16 0.2 32.3 100 0.1 32.2
06:55 1023 30.21 852 25.16 0.1 32.2 99 0 32.1
07:00 1023 30.21 852 25.16 0.1 32.2 99 0 32
07:05 1023 30.21 852 25.16 0.1 32.2 99 0 32
07:10 1023 30.21 852 25.16 0.1 32.2 100 0 32.1
07:15 1023 30.21 852 25.16 0.1 32.1 99 -0 31.9
07:20 1023 30.21 852 25.16 0 32.1 99 -0.1 31.9
07:25 1023 30.21 852 25.16 -0 32 99 -0.1 31.8
07:30 1023 30.21 852 25.16 -0 32 100 -0.1 31.9
07:35 1023 30.21 852 25.16 -0 32 100 -0.1 31.9
07:40 1023 30.21 852 25.16 0 32 100 -0.1 31.9
07:45 1023 30.21 852 25.16 -0 32 100 -0.1 31.9
07:50 1023 30.21 852 25.16 -0.1 31.8 100 -0.1 31.8
07:55 1023 30.21 852 25.16 -0 31.9 100 -0 31.9
08:00 1023 30.21 852 25.16 0 32.1 100 0 32.1
08:05 1023 30.21 852 25.16 0 32 100 0 32
08:10 1023 30.21 852 25.16 -0.1 31.9 100 -0.1 31.9
08:15 1023 30.21 852 25.16 -0.1 31.9 100 -0.1 31.9
08:20 1023 30.21 852 25.16 -0 32 100 -0 32
08:25 1023 30.21 853 25.19 0.1 32.2 100 0.1 32.2
08:30 1023 30.21 853 25.19 0.2 32.3 100 0.2 32.3
08:35 1024 30.24 853 25.19 0.1 32.1 100 0.1 32.1
08:40 1024 30.24 853 25.19 0.1 32.1 100 0 32.1
08:45 1024 30.24 853 25.19 -0 31.9 99 -0.1 31.8
08:50 1024 30.24 853 25.19 -0.1 31.8 99 -0.3 31.5
08:55 1023 30.21 853 25.19 0 32 99 -0.1 31.8
09:00 1024 30.24 853 25.19 0 32 99 -0.1 31.8
09:05 1024 30.24 853 25.19 0.1 32.3 99 0.1 32.1
09:10 1024 30.24 853 25.19 0.3 32.5 100 0.2 32.4
09:15 1024 30.24 853 25.19 0.3 32.6 100 0.3 32.5
09:20 1024 30.24 853 25.19 0.3 32.5 100 0.2 32.4
09:25 1024 30.24 853 25.19 0.3 32.5 99 0.2 32.3
09:30 1024 30.24 853 25.19 0.2 32.4 99 0.1 32.2
09:35 1024 30.24 853 25.19 0.1 32.2 98 -0.2 31.7
09:40 1024 30.24 853 25.19 0.1 32.2 97 -0.2 31.6
09:45 1024 30.24 853 25.19 0 32 97 -0.5 31.1
09:50 1024 30.24 853 25.19 0 32 95 -0.6 30.8
09:55 1024 30.24 853 25.19 -0.3 31.5 94 -1.1 30.1
10:00 1024 30.24 853 25.19 -0.3 31.5 93 -1.3 29.6
10:05 1024 30.24 853 25.19 0 32.1 93 -1 30.1
10:10 1024 30.24 853 25.19 0.2 32.4 90 -1.1 29.9
10:15 1024 30.24 853 25.19 0.3 32.5 90 -1.2 29.9
10:20 1024 30.24 853 25.19 0.2 32.3 90 -1.3 29.7
10:25 1024 30.24 853 25.19 0.1 32.1 89 -1.5 29.4
10:30 1024 30.24 853 25.19 -0 32 90 -1.5 29.3
10:35 1024 30.24 853 25.19 -0 31.9 91 -1.4 29.5
10:40 1024 30.24 853 25.19 -0.1 31.9 88 -1.8 28.8
10:45 1024 30.24 853 25.19 -0.1 31.8 88 -1.9 28.6
10:50 1024 30.24 853 25.19 -0 31.9 90 -1.5 29.2
10:55 1024 30.24 853 25.19 -0 31.9 90 -1.6 29.2
11:00 1024 30.24 853 25.19 0.1 32.2 90 -1.3 29.6
11:05 1024 30.24 853 25.19 0.2 32.3 90 -1.3 29.7
11:10 1024 30.24 853 25.19 0.2 32.3 87 -1.7 28.9
11:15 1024 30.24 853 25.19 0.1 32.1 91 -1.2 29.8
11:20 1024 30.24 853 25.19 -0.1 31.8 90 -1.6 29.1
11:25 1024 30.24 854 25.22 -0.3 31.5 89 -1.9 28.6
11:30 1025 30.27 854 25.22 -0.4 31.3 91 -1.7 29
11:35 1025 30.27 854 25.22 -0.3 31.5 88 -2.1 28.3
11:40 1025 30.27 854 25.22 -0.5 31.2 89 -2 28.4
11:45 1025 30.27 854 25.22 -0.6 30.9 90 -2 28.3
11:50 1025 30.27 854 25.22 -0.5 31.2 89 -2.1 28.2
11:55 1024 30.24 854 25.22 -0.4 31.3 88 -2.2 28
12:00 1024 30.24 854 25.22 -0.6 31 86 -2.6 27.3
12:05 1024 30.24 854 25.22 -0.6 30.9 89 -2.1 28.2
12:10 1024 30.24 854 25.22 -0.6 31 86 -2.7 27.2
12:15 1024 30.24 854 25.22 -0.4 31.3 87 -2.3 27.9
12:20 1024 30.24 854 25.22 -0.2 31.7 86 -2.2 28
12:25 1024 30.24 854 25.22 -0.2 31.7 87 -2 28.3
12:30 1025 30.27 854 25.22 -0.1 31.7 87 -2 28.4
12:35 1025 30.27 854 25.22 -0.1 31.8 86 -2.1 28.1
12:40 1025 30.27 854 25.22 -0.2 31.6 85 -2.4 27.7
12:45 1024 30.24 854 25.22 -0.2 31.6 84 -2.6 27.2
12:50 1024 30.24 854 25.22 -0.2 31.6 86 -2.3 27.8
12:55 1024 30.24 854 25.22 -0.3 31.5 84 -2.6 27.2
13:00 1024 30.24 854 25.22 -0.2 31.7 84 -2.5 27.5
13:05 1024 30.24 854 25.22 -0.3 31.5 83 -2.9 26.8
13:10 1024 30.24 853 25.19 -0.2 31.6 83 -2.7 27.2
13:15 1024 30.24 853 25.19 0.1 32.3 82 -2.7 27.2
13:20 1024 30.24 854 25.22 0.2 32.4 85 -2.1 28.2
13:25 1024 30.24 853 25.19 0.1 32.2 80 -3 26.7
13:30 1024 30.24 853 25.19 0 32.1 82 -2.7 27.1
13:35 1024 30.24 853 25.19 -0.1 31.8 83 -2.7 27.2
13:40 1024 30.24 853 25.19 0 32 84 -2.4 27.7
13:45 1024 30.24 853 25.19 -0 32 84 -2.4 27.6
13:50 1024 30.24 853 25.19 -0 32 83 -2.5 27.4
13:55 1024 30.24 853 25.19 -0.2 31.6 88 -1.9 28.5
14:00 1024 30.24 853 25.19 -0.2 31.7 87 -2.1 28.2
14:05 1024 30.24 853 25.19 -0.4 31.3 90 -1.8 28.8
14:10 1024 30.24 853 25.19 -0.1 31.9 88 -1.8 28.8
14:15 1024 30.24 854 25.22 0.1 32.1 87 -1.9 28.6
14:20 1024 30.24 854 25.22 0.1 32.3 85 -2 28.4
14:25 1024 30.24 854 25.22 0.4 32.7 84 -2 28.4
14:30 1024 30.24 854 25.22 0.4 32.7 91 -1 30.2
14:35 1024 30.24 854 25.22 0.4 32.8 92 -0.7 30.8
14:40 1024 30.24 854 25.22 0.5 32.9 92 -0.6 30.9
14:45 1024 30.24 854 25.22 0.4 32.8 93 -0.6 30.9
14:50 1024 30.24 854 25.22 0.3 32.5 93 -0.7 30.7
14:55 1024 30.24 854 25.22 0.1 32.2 95 -0.7 30.8
15:00 1024 30.24 854 25.22 0.2 32.4 93 -0.8 30.6
15:05 1024 30.24 854 25.22 0.2 32.4 93 -0.8 30.6
15:10 1024 30.24 854 25.22 0.3 32.6 93 -0.7 30.8
15:15 1024 30.24 854 25.22 0.3 32.6 92 -0.9 30.4
15:20 1024 30.24 854 25.22 0.1 32.2 92 -1 30.2
15:25 1024 30.24 854 25.22 0 32.1 94 -0.9 30.4
15:30 1024 30.24 853 25.19 0.1 32.3 93 -0.9 30.4
15:35 1024 30.24 853 25.19 0.2 32.4 92 -0.8 30.5
15:40 1024 30.24 854 25.22 0.4 32.7 93 -0.6 30.9
15:45 1024 30.24 853 25.19 0.7 33.3 91 -0.6 30.9
15:50 1024 30.24 853 25.19 0.6 33.1 92 -0.5 31.1
15:55 1024 30.24 853 25.19 0.8 33.4 92 -0.4 31.2
16:00 1024 30.24 853 25.19 0.7 33.2 89 -1 30.2
16:05 1024 30.24 853 25.19 0.7 33.3 92 -0.4 31.3
16:10 1024 30.24 853 25.19 0.9 33.7 89 -0.7 30.7
16:15 1024 30.24 853 25.19 0.8 33.4 88 -0.9 30.3
16:20 1024 30.24 853 25.19 0.1 32.2 93 -0.9 30.3
16:25 1024 30.24 853 25.19 -0.1 31.9 94 -0.9 30.3
16:30 1024 30.24 853 25.19 -0 31.9 93 -1 30.1
16:35 1024 30.24 853 25.19 0 32.1 88 -1.7 28.9
16:40 1024 30.24 853 25.19 -0.1 31.7 87 -2 28.3
16:45 1024 30.24 853 25.19 -0.3 31.5 89 -1.9 28.6
16:50 1024 30.24 853 25.19 -0.2 31.6 87 -2.2 28.1
16:55 1024 30.24 853 25.19 -0.3 31.5 87 -2.1 28.2
17:00 1024 30.24 853 25.19 -0.5 31.2 87 -2.3 27.8
17:05 1024 30.24 853 25.19 -0.3 31.5 86 -2.4 27.7
17:10 1024 30.24 853 25.19 -0.2 31.7 84 -2.5 27.5
17:15 1024 30.24 853 25.19 -0.1 31.9 84 -2.5 27.5
17:20 1024 30.24 853 25.19 -0.2 31.6 82 -2.9 26.8
17:25 1024 30.24 853 25.19 -0.3 31.4 82 -3 26.7
17:30 1024 30.24 853 25.19 -0.2 31.6 84 -2.7 27.1
17:35 1024 30.24 853 25.19 -0.3 31.4 83 -2.9 26.8
17:40 1024 30.24 853 25.19 -0.3 31.4 84 -2.7 27.1
17:45 1024 30.24 853 25.19 -0.3 31.4 81 -3.2 26.2
17:50 1024 30.24 853 25.19 -0.4 31.3 81 -3.3 26.1
17:55 1024 30.24 853 25.19 -0.5 31.2 82 -3.2 26.3
18:00 1024 30.24 853 25.19 -0.5 31.2 82 -3.1 26.4
18:05 1024 30.24 853 25.19 -0.4 31.3 83 -3 26.7
18:10 1024 30.24 853 25.19 -0.4 31.2 85 -2.7 27.2
18:15 1024 30.24 854 25.22 -0.6 31 86 -2.7 27.1
18:20 1024 30.24 854 25.22 -0.7 30.8 86 -2.7 27.2
18:25 1024 30.24 854 25.22 -0.7 30.7 86 -2.7 27.1
18:30 1024 30.24 854 25.22 -0.7 30.7 87 -2.7 27.1
18:35 1025 30.27 854 25.22 -0.9 30.5 88 -2.6 27.4
18:40 1025 30.27 854 25.22 -0.9 30.3 88 -2.7 27.2
18:45 1025 30.27 854 25.22 -1 30.2 88 -2.7 27.1
18:50 1025 30.27 854 25.22 -1 30.2 88 -2.8 26.9
18:55 1025 30.27 854 25.22 -1.1 30.1 89 -2.7 27.1
19:00 1025 30.27 854 25.22 -1.1 29.9 88 -2.9 26.8
19:05 1025 30.27 854 25.22 -1.2 29.9 87 -3 26.6
19:10 1025 30.27 854 25.22 -1.1 30 86 -3.1 26.4
19:15 1025 30.27 854 25.22 -1.1 30 86 -3.2 26.3
19:20 1025 30.27 854 25.22 -1.2 29.9 86 -3.3 26.1
19:25 1025 30.27 854 25.22 -1.2 29.8 86 -3.2 26.2
19:30 1025 30.27 854 25.22 -1.3 29.6 85 -3.5 25.7
19:35 1025 30.27 854 25.22 -1.4 29.5 86 -3.4 25.9
19:40 1025 30.27 854 25.22 -1.5 29.3 87 -3.4 25.9
19:45 1025 30.27 854 25.22 -1.5 29.3 87 -3.4 25.9
19:50 1025 30.27 854 25.22 -1.6 29.1 85 -3.8 25.2
19:55 1025 30.27 854 25.22 -1.7 29 86 -3.8 25.2
20:00 1025 30.27 854 25.22 -1.8 28.8 85 -4.1 24.7
20:05 1025 30.27 854 25.22 -1.8 28.7 85 -4 24.8
20:10 1025 30.27 854 25.22 -1.9 28.5 85 -4.1 24.5
20:15 1025 30.27 854 25.22 -2 28.5 86 -4.1 24.7
20:20 1025 30.27 854 25.22 -2 28.5 85 -4.1 24.6
20:25 1025 30.27 854 25.22 -2 28.4 87 -3.9 24.9
20:30 1025 30.27 854 25.22 -2 28.4 85 -4.1 24.6
20:35 1025 30.27 854 25.22 -2 28.5 85 -4.2 24.5
20:40 1025 30.27 854 25.22 -2 28.4 85 -4.1 24.5
20:45 1025 30.27 854 25.22 -2 28.4 85 -4.2 24.4
20:50 1025 30.27 854 25.22 -2 28.4 86 -4 24.8
20:55 1025 30.27 854 25.22 -2.1 28.2 85 -4.2 24.4
21:00 1025 30.27 854 25.22 -2.1 28.3 86 -4.1 24.6
21:05 1025 30.27 854 25.22 -2 28.3 85 -4.2 24.5
21:10 1025 30.27 854 25.22 -2.1 28.3 86 -4.2 24.5
21:15 1025 30.27 854 25.22 -2 28.5 85 -4.2 24.5
21:20 1025 30.27 854 25.22 -1.9 28.5 84 -4.3 24.2
21:25 1025 30.27 854 25.22 -1.9 28.6 84 -4.2 24.4
21:30 1025 30.27 855 25.25 -1.9 28.6 83 -4.3 24.2
21:35 1025 30.27 855 25.25 -1.8 28.7 84 -4.2 24.4
21:40 1025 30.27 855 25.25 -1.8 28.8 83 -4.3 24.2
21:45 1025 30.27 855 25.25 -1.7 28.9 82 -4.4 24
21:50 1025 30.27 855 25.25 -1.7 28.9 82 -4.3 24.2
21:55 1025 30.27 854 25.22 -1.7 28.9 82 -4.4 24
22:00 1025 30.27 855 25.25 -1.7 28.9 82 -4.4 24
22:05 1026 30.3 855 25.25 -1.6 29 82 -4.3 24.2
22:10 1026 30.3 855 25.25 -1.6 29.2 79 -4.8 23.4
22:15 1026 30.3 855 25.25 -1.4 29.4 78 -4.8 23.3
22:20 1026 30.3 855 25.25 -1.4 29.5 78 -4.7 23.6
22:25 1026 30.3 855 25.25 -1.4 29.5 77 -4.8 23.3
22:30 1026 30.3 855 25.25 -1.3 29.7 77 -4.9 23.3
22:35 1026 30.3 855 25.25 -1.3 29.6 76 -5 23
22:40 1026 30.3 855 25.25 -1.4 29.5 79 -4.6 23.7
22:45 1026 30.3 855 25.25 -1.5 29.3 79 -4.6 23.7
22:50 1025 30.27 855 25.25 -1.6 29.1 80 -4.7 23.5
22:55 1025 30.27 855 25.25 -1.6 29.1 80 -4.6 23.8
23:00 1025 30.27 855 25.25 -1.6 29.1 80 -4.7 23.6
23:05 1025 30.27 855 25.25 -1.7 29 81 -4.5 23.8
23:10 1025 30.27 854 25.22 -1.8 28.7 82 -4.4 24
23:15 1025 30.27 854 25.22 -1.9 28.6 83 -4.4 24.1
23:20 1025 30.27 854 25.22 -1.9 28.6 82 -4.6 23.7
23:25 1025 30.27 854 25.22 -1.8 28.7 82 -4.5 23.9
23:30 1025 30.27 854 25.22 -1.9 28.5 83 -4.5 23.9
23:35 1025 30.27 854 25.22 -1.9 28.6 82 -4.6 23.7
23:40 1025 30.27 854 25.22 -1.9 28.6 82 -4.6 23.7
23:45 1024 30.24 854 25.22 -1.9 28.5 83 -4.5 24
23:50 1024 30.24 854 25.22 -2 28.5 83 -4.4 24.1
23:55 1024 30.24 854 25.22 -1.9 28.6 82 -4.6 23.7
24:00 1024 30.24 854 25.22 -1.8 28.8 81 -4.7 23.6